OICK  Khoram Abad  Airport

Iran

Add Bookmark
Status IATA
Operational KHD
Latitude Longitude
33° 26' 7" N 48° 16' 58" E
33.435398 48.282902
Local (DST + 5) UTC (GMT + 4)
Mar 2, 2015 06:25 Mar 2, 2015 14:55
Sunrise-Sunset Local UTC
Begin Civil Twilight 06:17 02:47
Sunrise 06:42 03:12
Sunset 06:15 14:45
End Civil Twilight 06:40 15:10

Current Weather

METAR Observed VFR
OICK 021200Z 23012KT 9999 FEW040 16/M06 Q1013 Mon, Mar 2, 2015 @ 12:00 UTC
(2 Hours, 55 Minutes ago)
Visual Flight Rules
Wind Visibility Clouds Conditions
230° at 12 knots (22 kph) 10 km or more
  • Few at 4,000' AGL
  • No significant weather
Temperatures Readings Precipitation
Current Temp 16°C (61°F)
Dewpoint -6°C (21°F)
Humidity 22%
Altimeter 29.91"Hg
Sea Level Pressure 1013mb
Field Elevation 3789.37'
None Recorded

24 Hour Weather History

Loading
-

24 Hour Weather Graphs

Loading
-

CheckWX.com is intended as a tool to help pilots better visualize weather data. It is not intended as a substitute for an official weather briefing obtained from a Flight Service Station. CheckWX.com does not meet the FAA requirements for an official pre-flight weather briefing. Therefore, it's important that pilots still call and obtain an official FSS pre-flight weather briefing.